Time;durP1;ratioP1;P1;durP2;ratioP2;P2;SDS_P1;SDS_P2;PMS_P1;PMS_P2;Temp;Humidity;BMP_temperature;BMP_pressure;BME280_temperature;BME280_humidity;BME280_pressure;Samples;Min_cycle;Max_cycle;Signal;HPM_P1;HPM_P2
2023/08/27 00:02:24;;;;;;;11.23;4.97;;;;;;;-142.57;49.61;115900.28;4978279;28;20547;-84
2023/08/27 00:04:50;;;;;;;13.73;4.95;;;;;;;-142.57;50.69;115900.28;4978567;28;20465;-84
2023/08/27 00:07:16;;;;;;;20.38;5.18;;;;;;;-142.57;50.42;115900.28;4977568;28;20031;-84
2023/08/27 00:09:41;;;;;;;16.60;5.32;;;;;;;-142.57;51.28;115900.28;4978006;28;20616;-85
2023/08/27 00:12:22;;;;;;;11.57;5.30;;;;;;;-142.57;51.14;115900.28;4977481;28;20031;-84
2023/08/27 00:14:48;;;;;;;10.50;5.32;;;;;;;-142.57;49.79;115900.28;4976696;28;20455;-84
2023/08/27 00:17:13;;;;;;;7.30;4.85;;;;;;;-142.57;49.30;115900.28;4977057;28;20054;-81
2023/08/27 00:19:39;;;;;;;9.32;4.90;;;;;;;-142.57;48.15;115900.28;4977873;28;20131;-84
2023/08/27 00:22:04;;;;;;;11.50;5.03;;;;;;;-142.57;47.77;115900.28;4977922;28;20086;-84
2023/08/27 00:24:32;;;;;;;12.63;4.72;;;;;;;-142.57;47.57;115900.28;4980687;28;20043;-83
2023/08/27 00:26:57;;;;;;;10.57;5.03;;;;;;;-142.57;46.42;115900.28;4977279;28;20039;-83
2023/08/27 00:29:23;;;;;;;9.02;4.72;;;;;;;-142.57;44.82;115900.28;4975949;28;20029;-84
2023/08/27 00:31:49;;;;;;;11.55;5.07;;;;;;;-142.57;44.16;115900.28;4977868;28;20778;-82
2023/08/27 00:34:14;;;;;;;10.27;4.88;;;;;;;-142.57;44.09;115900.28;4992099;28;20038;-85
2023/08/27 00:36:40;;;;;;;13.35;5.10;;;;;;;-142.57;43.91;115900.28;4975750;28;20100;-84
2023/08/27 00:39:06;;;;;;;13.00;5.05;;;;;;;-142.57;43.56;115900.28;4976974;28;20100;-84
2023/08/27 00:41:32;;;;;;;10.35;4.55;;;;;;;-142.57;42.28;115900.28;4977964;28;20115;-85
2023/08/27 00:43:58;;;;;;;8.05;4.55;;;;;;;-142.57;42.27;115900.28;4976354;28;20043;-83
2023/08/27 00:46:24;;;;;;;12.20;4.55;;;;;;;-142.57;42.30;115900.28;4976920;28;20031;-83
2023/08/27 00:48:49;;;;;;;8.48;5.05;;;;;;;-142.57;42.56;115900.28;4976346;28;20515;-83
2023/08/27 00:51:15;;;;;;;6.80;4.80;;;;;;;-142.57;41.73;115900.28;4977150;28;20038;-84
2023/08/27 00:53:41;;;;;;;11.18;4.80;;;;;;;-142.57;41.86;115900.28;4976205;28;20491;-83
2023/08/27 00:56:07;;;;;;;10.35;4.20;;;;;;;-142.57;41.22;115900.28;4976197;28;20492;-83
2023/08/27 00:58:33;;;;;;;8.95;4.38;;;;;;;-142.57;42.42;115900.28;4977725;28;20118;-83
2023/08/27 01:00:58;;;;;;;12.35;4.57;;;;;;;-142.57;42.90;115900.28;4976646;28;20035;-85
2023/08/27 01:03:25;;;;;;;8.60;4.95;;;;;;;-142.57;41.93;115900.28;4985818;28;20031;-83
2023/08/27 01:05:51;;;;;;;9.98;4.57;;;;;;;-142.57;41.48;115900.28;4984287;28;20050;-82
2023/08/27 01:08:48;;;;;;;13.55;5.28;;;;;;;-142.57;41.73;115900.28;4980797;28;20117;-83
2023/08/27 01:12:04;;;;;;;11.25;4.97;;;;;;;-142.57;42.22;115900.28;4974624;28;20070;-80
2023/08/27 01:14:33;;;;;;;16.27;4.97;;;;;;;-142.57;42.61;115900.28;4988280;28;20046;-83
2023/08/27 01:17:02;;;;;;;11.85;5.00;;;;;;;-142.57;42.58;115900.28;5013442;28;20034;-84
2023/08/27 01:19:30;;;;;;;7.90;4.75;;;;;;;-142.57;42.35;115900.28;5013910;28;20026;-85
2023/08/27 01:21:55;;;;;;;7.35;4.60;;;;;;;-142.57;42.73;115900.28;5004290;28;20471;-83
2023/08/27 01:24:21;;;;;;;9.85;4.70;;;;;;;-142.57;42.62;115900.28;4997010;28;20103;-80
2023/08/27 01:26:53;;;;;;;9.75;4.70;;;;;;;-142.57;43.05;115900.28;4994776;28;20093;-80
2023/08/27 01:29:40;;;;;;;6.57;4.43;;;;;;;-142.57;43.19;115900.28;4996198;28;20041;-83
2023/08/27 01:32:24;;;;;;;14.00;5.63;;;;;;;-142.57;43.12;115900.28;4994147;28;20049;-83
2023/08/27 01:34:53;;;;;;;13.20;4.88;;;;;;;-142.57;42.73;115900.28;4993347;28;20088;-86
2023/08/27 01:37:20;;;;;;;12.32;4.68;;;;;;;-142.57;42.73;115900.28;4993066;28;20031;-79
2023/08/27 01:39:45;;;;;;;8.15;4.90;;;;;;;-142.57;42.96;115900.28;5003052;28;20046;-82
2023/08/27 01:42:12;;;;;;;8.68;4.72;;;;;;;-142.57;43.21;115900.28;5002282;28;20128;-82
2023/08/27 01:44:38;;;;;;;6.78;4.65;;;;;;;-142.57;43.56;115900.28;4992156;28;20062;-80
2023/08/27 01:47:04;;;;;;;15.13;5.20;;;;;;;-142.57;44.26;115900.28;4994407;28;20088;-83
2023/08/27 01:49:30;;;;;;;10.48;5.30;;;;;;;-142.57;44.76;115900.28;4998019;28;20041;-83
2023/08/27 01:51:57;;;;;;;9.40;4.72;;;;;;;-142.57;44.75;115900.28;4996443;28;20034;-83
2023/08/27 01:54:23;;;;;;;9.43;4.80;;;;;;;-142.57;44.76;115900.28;4993867;28;20408;-83
2023/08/27 01:56:50;;;;;;;7.90;5.18;;;;;;;-142.57;44.42;115900.28;4991911;28;20030;-83
2023/08/27 01:59:15;;;;;;;6.25;4.70;;;;;;;-142.57;43.82;115900.28;4992263;28;20066;-83
2023/08/27 02:01:43;;;;;;;8.68;5.00;;;;;;;-142.57;43.39;115900.28;4992057;28;20062;-82
2023/08/27 02:04:09;;;;;;;9.13;4.78;;;;;;;-142.57;43.71;115900.28;4992104;28;20381;-82
2023/08/27 02:06:34;;;;;;;12.32;4.60;;;;;;;-142.57;43.24;115900.28;4991995;28;20062;-81
2023/08/27 02:09:09;;;;;;;7.80;5.32;;;;;;;-142.57;43.62;115900.28;4992034;28;20022;-82
2023/08/27 02:11:35;;;;;;;7.78;4.72;;;;;;;-142.57;43.36;115900.28;4992198;28;20104;-82
2023/08/27 02:14:03;;;;;;;8.40;4.90;;;;;;;-142.57;43.72;115900.28;4993290;28;20042;-83
2023/08/27 02:16:29;;;;;;;10.80;5.20;;;;;;;-142.57;43.80;115900.28;4991704;28;20034;-83
2023/08/27 02:18:55;;;;;;;8.55;4.72;;;;;;;-142.57;43.95;115900.28;4992058;28;20503;-83
2023/08/27 02:21:21;;;;;;;8.88;4.95;;;;;;;-142.57;43.91;115900.28;4992096;28;20034;-83
2023/08/27 02:23:46;;;;;;;10.55;5.47;;;;;;;-142.57;43.82;115900.28;4992002;28;20042;-81
2023/08/27 02:26:12;;;;;;;6.20;4.95;;;;;;;-142.57;43.92;115900.28;4992957;28;20065;-82
2023/08/27 02:28:37;;;;;;;6.93;4.63;;;;;;;-142.57;44.40;115900.28;4992678;28;20026;-82
2023/08/27 02:31:03;;;;;;;9.43;4.85;;;;;;;-142.57;44.60;115900.28;4991808;28;20134;-80
2023/08/27 02:33:28;;;;;;;7.75;5.38;;;;;;;-142.57;44.67;115900.28;4992949;28;20092;-82
2023/08/27 02:35:54;;;;;;;8.25;5.05;;;;;;;-142.57;44.97;115900.28;4992543;28;20066;-82
2023/08/27 02:38:20;;;;;;;10.80;5.30;;;;;;;-142.57;45.12;115900.28;4991616;28;20027;-82
2023/08/27 02:40:45;;;;;;;9.98;5.03;;;;;;;-142.57;45.33;115900.28;4991259;28;20041;-82
2023/08/27 02:43:11;;;;;;;8.00;4.93;;;;;;;-142.57;45.77;115900.28;4991894;28;20050;-81
2023/08/27 02:45:36;;;;;;;13.13;5.53;;;;;;;-142.57;45.84;115900.28;4992027;28;20054;-82
2023/08/27 02:48:02;;;;;;;10.02;5.43;;;;;;;-142.57;45.54;115900.28;4992871;28;20061;-82
2023/08/27 02:50:27;;;;;;;8.52;4.93;;;;;;;-142.57;45.48;115900.28;4992358;28;20057;-82
2023/08/27 02:52:53;;;;;;;9.70;4.75;;;;;;;-142.57;45.42;115900.28;4995311;28;20377;-82
2023/08/27 02:55:19;;;;;;;7.70;4.72;;;;;;;-142.57;45.31;115900.28;4997110;28;20041;-85
2023/08/27 02:57:44;;;;;;;9.43;4.50;;;;;;;-142.57;45.55;115900.28;4994714;28;20412;-81
2023/08/27 03:00:10;;;;;;;10.48;4.50;;;;;;;-142.57;45.45;115900.28;4996550;28;20104;-82
2023/08/27 03:02:36;;;;;;;11.98;4.90;;;;;;;-142.57;46.10;115900.28;4994881;28;20034;-83
2023/08/27 03:05:04;;;;;;;9.63;5.15;;;;;;;-142.57;46.18;115900.28;4995113;28;20445;-81
2023/08/27 03:07:30;;;;;;;11.75;5.13;;;;;;;-142.57;45.99;115900.28;4994964;28;20030;-81
2023/08/27 03:09:56;;;;;;;7.45;4.75;;;;;;;-142.57;46.21;115900.28;4994915;28;20026;-81
2023/08/27 03:12:21;;;;;;;10.52;4.90;;;;;;;-142.57;46.83;115900.28;4996259;28;20108;-82
2023/08/27 03:14:47;;;;;;;7.93;4.75;;;;;;;-142.57;46.88;115900.28;4996361;28;20041;-82
2023/08/27 03:17:13;;;;;;;9.00;5.28;;;;;;;-142.57;47.07;115900.28;4995858;28;20049;-80
2023/08/27 03:19:38;;;;;;;9.23;4.60;;;;;;;-142.57;47.15;115900.28;4995474;28;20483;-82
2023/08/27 03:22:04;;;;;;;12.77;4.78;;;;;;;-142.57;47.68;115900.28;4996478;28;20432;-80
2023/08/27 03:24:29;;;;;;;8.63;5.03;;;;;;;-142.57;47.79;115900.28;4996545;28;20097;-81
2023/08/27 03:26:55;;;;;;;7.70;5.10;;;;;;;-142.57;48.05;115900.28;4996000;28;20045;-82
2023/08/27 03:29:25;;;;;;;14.93;5.78;;;;;;;-142.57;48.36;115900.28;4994890;28;20105;-83
2023/08/27 03:31:50;;;;;;;11.35;5.43;;;;;;;-142.57;48.48;115900.28;4994692;28;20034;-79
2023/08/27 03:34:16;;;;;;;9.63;4.85;;;;;;;-142.57;48.78;115900.28;4994898;28;20030;-81
2023/08/27 03:36:42;;;;;;;10.43;5.32;;;;;;;-142.57;48.74;115900.28;4993687;28;20034;-81
2023/08/27 03:39:08;;;;;;;7.93;4.72;;;;;;;-142.57;48.78;115900.28;4994292;28;20104;-80
2023/08/27 03:41:37;;;;;;;9.23;5.18;;;;;;;-142.57;48.91;115900.28;4994251;28;20042;-81
2023/08/27 03:44:03;;;;;;;7.63;4.90;;;;;;;-142.57;48.83;115900.28;4993899;28;20046;-81
2023/08/27 03:46:33;;;;;;;10.07;5.32;;;;;;;-142.57;49.14;115900.28;4995751;28;20483;-84
2023/08/27 03:49:00;;;;;;;15.50;4.72;;;;;;;-142.57;49.01;115900.28;4994726;28;20034;-81
2023/08/27 03:51:30;;;;;;;8.45;4.55;;;;;;;-142.57;48.84;115900.28;4994511;28;20526;-83
2023/08/27 03:53:57;;;;;;;8.68;4.70;;;;;;;-142.57;48.86;115900.28;4994336;28;20045;-82
2023/08/27 03:56:23;;;;;;;11.77;5.57;;;;;;;-142.57;48.83;115900.28;4995484;28;20045;-84
2023/08/27 03:58:48;;;;;;;10.05;5.38;;;;;;;-142.57;49.02;115900.28;4994873;28;20120;-82
2023/08/27 04:01:14;;;;;;;7.60;4.60;;;;;;;-142.57;49.07;115900.28;4995177;28;20117;-81
2023/08/27 04:03:40;;;;;;;11.93;4.93;;;;;;;-142.57;49.69;115900.28;4995623;28;20066;-83
2023/08/27 04:06:10;;;;;;;8.65;4.85;;;;;;;-142.57;49.84;115900.28;4994078;28;20030;-83
2023/08/27 04:08:36;;;;;;;13.95;5.53;;;;;;;-142.57;49.99;115900.28;4994226;28;20034;-81
2023/08/27 04:11:03;;;;;;;7.20;4.70;;;;;;;-142.57;49.64;115900.28;4994140;28;20498;-82
2023/08/27 04:13:30;;;;;;;10.38;5.10;;;;;;;-142.57;50.46;115900.28;5000218;28;20105;-81
2023/08/27 04:16:08;;;;;;;15.68;5.05;;;;;;;-142.57;50.62;115900.28;5006763;28;20041;-80
2023/08/27 04:18:35;;;;;;;8.52;4.82;;;;;;;-142.57;50.90;115900.28;4994167;28;20035;-82
2023/08/27 04:21:01;;;;;;;11.25;4.78;;;;;;;-142.57;51.02;115900.28;4995219;28;20049;-83
2023/08/27 04:23:28;;;;;;;9.73;5.20;;;;;;;-142.57;51.43;115900.28;4993996;28;20034;-81
2023/08/27 04:25:54;;;;;;;8.25;5.10;;;;;;;-142.57;51.15;115900.28;4995384;28;20069;-85
2023/08/27 04:28:20;;;;;;;8.07;4.90;;;;;;;-142.57;51.40;115900.28;4993963;28;20399;-82
2023/08/27 04:30:49;;;;;;;10.32;5.35;;;;;;;-142.57;51.51;115900.28;4995074;28;20041;-84
2023/08/27 04:33:16;;;;;;;9.73;4.60;;;;;;;-142.57;51.68;115900.28;4993716;28;20987;-82
2023/08/27 04:35:44;;;;;;;10.48;5.63;;;;;;;-142.57;51.38;115900.28;4994017;28;20030;-82
2023/08/27 04:38:10;;;;;;;11.63;5.25;;;;;;;-142.57;52.15;115900.28;4994989;28;20022;-81
2023/08/27 04:40:36;;;;;;;7.10;5.10;;;;;;;-142.57;52.39;115900.28;4993608;28;20104;-83
2023/08/27 04:43:02;;;;;;;10.23;4.82;;;;;;;-142.57;52.09;115900.28;4994788;28;20121;-81
2023/08/27 04:45:27;;;;;;;10.30;4.90;;;;;;;-142.57;52.23;115900.28;4993009;28;20038;-82
2023/08/27 04:47:53;;;;;;;7.57;5.03;;;;;;;-142.57;52.21;115900.28;4994515;28;20029;-82
2023/08/27 04:50:18;;;;;;;6.53;5.07;;;;;;;-142.57;52.45;115900.28;4993281;28;20030;-82
2023/08/27 04:52:44;;;;;;;8.73;5.07;;;;;;;-142.57;52.99;115900.28;4994654;28;20372;-82
2023/08/27 04:55:11;;;;;;;12.07;5.70;;;;;;;-142.57;53.35;115900.28;4993348;28;20076;-82
2023/08/27 04:57:37;;;;;;;9.07;5.55;;;;;;;-142.57;53.32;115900.28;4993194;28;20042;-85
2023/08/27 05:00:07;;;;;;;18.73;6.53;;;;;;;-142.57;53.85;115900.28;4994562;28;20408;-80
2023/08/27 05:02:33;;;;;;;13.15;5.90;;;;;;;-142.57;53.91;115900.28;4992510;28;20052;-85
2023/08/27 05:04:59;;;;;;;9.85;5.65;;;;;;;-142.57;54.26;115900.28;4992400;28;20058;-83
2023/08/27 05:07:24;;;;;;;7.65;5.45;;;;;;;-142.57;53.71;115900.28;4993534;28;20042;-82
2023/08/27 05:09:50;;;;;;;11.45;5.40;;;;;;;-142.57;53.73;115900.28;4993509;28;20034;-83
2023/08/27 05:12:15;;;;;;;11.95;5.72;;;;;;;-142.57;53.56;115900.28;4993962;28;20026;-82
2023/08/27 05:14:41;;;;;;;10.38;5.30;;;;;;;-142.57;54.44;115900.28;4994337;28;20039;-84
2023/08/27 05:17:06;;;;;;;11.00;5.60;;;;;;;-142.57;54.42;115900.28;4994957;28;20054;-81
2023/08/27 05:19:33;;;;;;;15.18;5.93;;;;;;;-142.57;55.09;115900.28;4993288;28;20023;-84
2023/08/27 05:22:00;;;;;;;11.85;5.93;;;;;;;-142.57;55.35;115900.28;4992999;28;20121;-81
2023/08/27 05:24:26;;;;;;;9.13;5.45;;;;;;;-142.57;52.35;115900.28;4993331;28;20045;-82
2023/08/27 05:26:52;;;;;;;17.42;5.80;;;;;;;-142.57;52.30;115900.28;4993039;28;20034;-85
2023/08/27 05:29:19;;;;;;;9.00;5.70;;;;;;;-142.57;52.79;115900.28;4994482;28;20049;-81
2023/08/27 05:31:45;;;;;;;13.05;5.60;;;;;;;-142.57;52.66;115900.28;5004917;28;20038;-83
2023/08/27 05:34:11;;;;;;;10.18;5.50;;;;;;;-142.57;51.95;115900.28;4994160;28;20039;-80
2023/08/27 05:36:36;;;;;;;11.80;5.45;;;;;;;-142.57;51.69;115900.28;4994592;28;20053;-82
2023/08/27 05:39:03;;;;;;;12.95;5.15;;;;;;;-142.57;52.35;115900.28;4993427;28;20030;-81
2023/08/27 05:41:28;;;;;;;12.82;5.45;;;;;;;-142.57;53.41;115900.28;4993978;28;20480;-81
2023/08/27 05:43:57;;;;;;;16.80;6.38;;;;;;;-142.57;53.89;115900.28;4985750;28;20034;-81
2023/08/27 05:46:23;;;;;;;10.20;6.10;;;;;;;-142.57;53.10;115900.28;4974412;28;20031;-81
2023/08/27 05:48:49;;;;;;;13.40;5.82;;;;;;;-142.57;53.38;115900.28;4973279;28;20542;-88
2023/08/27 05:51:14;;;;;;;11.98;5.43;;;;;;;-142.57;52.94;115900.28;4972966;28;20046;-78
2023/08/27 05:53:40;;;;;;;10.60;5.03;;;;;;;-142.57;52.10;115900.28;4975217;28;20519;-84
2023/08/27 05:56:05;;;;;;;11.43;5.63;;;;;;;-142.57;52.06;115900.28;4983422;28;20402;-82
2023/08/27 05:58:31;;;;;;;14.52;5.85;;;;;;;-142.57;52.03;115900.28;4973689;28;20082;-82
2023/08/27 06:00:57;;;;;;;13.55;5.53;;;;;;;-142.57;51.97;115900.28;4975568;28;20031;-82
2023/08/27 06:03:23;;;;;;;12.73;5.88;;;;;;;-142.57;51.59;115900.28;4975945;28;20554;-84
2023/08/27 06:05:49;;;;;;;10.02;5.40;;;;;;;-142.57;52.44;115900.28;4977719;28;20034;-82
2023/08/27 06:08:15;;;;;;;16.90;6.30;;;;;;;-142.57;52.45;115900.28;4984831;28;20034;-77
2023/08/27 06:10:40;;;;;;;15.63;6.85;;;;;;;-142.57;52.88;115900.28;4972695;28;20045;-81
2023/08/27 06:13:07;;;;;;;15.15;5.90;;;;;;;-142.57;52.57;115900.28;4979042;28;20046;-82
2023/08/27 06:15:37;;;;;;;11.52;5.65;;;;;;;-142.57;52.79;115900.28;4983164;28;20034;-81
2023/08/27 06:18:04;;;;;;;11.13;5.70;;;;;;;-142.57;52.99;115900.28;4998019;28;20038;-82
2023/08/27 06:20:30;;;;;;;13.13;5.78;;;;;;;-142.57;52.82;115900.28;4993216;28;20118;-83
2023/08/27 06:22:57;;;;;;;11.45;6.10;;;;;;;-142.57;53.65;115900.28;5007953;28;20038;-80
2023/08/27 06:25:23;;;;;;;16.42;6.10;;;;;;;-142.57;53.55;115900.28;5011378;28;20099;-80
2023/08/27 06:27:50;;;;;;;13.00;5.40;;;;;;;-142.57;53.55;115900.28;5014664;28;20034;-82
2023/08/27 06:30:16;;;;;;;14.85;5.85;;;;;;;-142.57;54.69;115900.28;5000226;28;20392;-83
2023/08/27 06:32:42;;;;;;;15.02;5.60;;;;;;;-142.57;54.65;115900.28;4999495;28;20050;-85
2023/08/27 06:35:09;;;;;;;16.50;5.55;;;;;;;-142.57;54.80;115900.28;4998486;28;20042;-85
2023/08/27 06:37:35;;;;;;;18.60;5.78;;;;;;;-142.57;54.96;115900.28;4998482;28;20141;-85
2023/08/27 06:40:00;;;;;;;11.77;5.43;;;;;;;-142.57;55.40;115900.28;4997933;28;20034;-84
2023/08/27 06:42:26;;;;;;;14.10;5.43;;;;;;;-142.57;55.55;115900.28;4997530;28;20038;-85
2023/08/27 06:44:57;;;;;;;14.45;6.07;;;;;;;-142.57;53.59;115900.28;4997176;28;20058;-83
2023/08/27 06:47:23;;;;;;;14.02;6.20;;;;;;;-142.57;53.35;115900.28;4996975;28;20106;-83
2023/08/27 06:49:50;;;;;;;11.43;5.93;;;;;;;-142.57;53.30;115900.28;4998298;28;20056;-83
2023/08/27 06:52:17;;;;;;;23.40;6.72;;;;;;;-142.57;53.89;115900.28;4997345;28;20476;-87
2023/08/27 06:54:43;;;;;;;18.58;7.32;;;;;;;-142.57;54.82;115900.28;4996726;28;20034;-83
2023/08/27 06:57:09;;;;;;;15.18;7.13;;;;;;;-142.57;55.06;115900.28;4996484;28;20490;-83
2023/08/27 06:59:35;;;;;;;19.58;7.70;;;;;;;-142.57;55.49;115900.28;4997195;28;20337;-85
2023/08/27 07:02:01;;;;;;;20.52;6.82;;;;;;;-142.57;55.10;115900.28;4996259;28;20057;-84
2023/08/27 07:04:26;;;;;;;17.83;7.65;;;;;;;-142.57;55.48;115900.28;4996214;28;20038;-83
2023/08/27 07:06:52;;;;;;;17.13;6.50;;;;;;;-142.57;55.41;115900.28;4997849;28;20055;-85
2023/08/27 07:09:17;;;;;;;13.50;7.30;;;;;;;-142.57;55.01;115900.28;4998185;28;20548;-86
2023/08/27 07:11:43;;;;;;;11.68;6.80;;;;;;;-142.57;54.57;115900.28;4988786;28;20034;-86
2023/08/27 07:14:09;;;;;;;12.30;6.45;;;;;;;-142.57;54.99;115900.28;4996084;28;20021;-85
2023/08/27 07:16:34;;;;;;;13.82;6.70;;;;;;;-142.57;54.54;115900.28;5019970;28;20030;-87
2023/08/27 07:19:01;;;;;;;19.40;6.30;;;;;;;-142.57;54.29;115900.28;5020804;28;20034;-87
2023/08/27 07:21:32;;;;;;;15.32;6.63;;;;;;;-142.57;53.56;115900.28;5018262;28;20018;-87
2023/08/27 07:23:58;;;;;;;11.68;5.90;;;;;;;-142.57;52.89;115900.28;5005966;28;20045;-89
2023/08/27 07:26:26;;;;;;;14.43;6.40;;;;;;;-142.57;52.21;115900.28;5011782;28;20030;-84
2023/08/27 07:28:52;;;;;;;15.48;6.15;;;;;;;-142.57;51.57;115900.28;5011900;28;20034;-84
2023/08/27 07:31:17;;;;;;;15.02;6.35;;;;;;;-142.57;51.58;115900.28;5005297;28;20025;-85
2023/08/27 07:33:47;;;;;;;15.15;6.40;;;;;;;-142.57;50.88;115900.28;5001215;28;20401;-87
2023/08/27 07:36:16;;;;;;;16.30;6.65;;;;;;;-142.57;51.63;115900.28;5004684;28;20077;-86
2023/08/27 07:38:42;;;;;;;13.80;7.10;;;;;;;-142.57;51.29;115900.28;5002266;28;20041;-86
2023/08/27 07:41:09;;;;;;;17.80;7.35;;;;;;;-142.57;51.21;115900.28;5001091;28;20038;-84
2023/08/27 07:43:36;;;;;;;15.48;6.60;;;;;;;-142.57;51.57;115900.28;5004480;28;20022;-85
2023/08/27 07:46:02;;;;;;;19.45;6.65;;;;;;;-142.57;51.85;115900.28;5006396;28;20053;-85
2023/08/27 07:48:32;;;;;;;16.45;6.40;;;;;;;-142.57;51.78;115900.28;5001575;28;20035;-82
2023/08/27 07:51:07;;;;;;;15.57;6.45;;;;;;;-142.57;51.94;115900.28;5002043;28;20474;-85
2023/08/27 07:53:33;;;;;;;16.95;7.00;;;;;;;-142.57;51.44;115900.28;5000439;28;20472;-83
2023/08/27 07:55:59;;;;;;;14.80;6.90;;;;;;;-142.57;51.06;115900.28;5004092;28;20034;-85
2023/08/27 07:58:25;;;;;;;14.05;6.28;;;;;;;-142.57;50.53;115900.28;4999994;28;20022;-83
2023/08/27 08:01:02;;;;;;;12.07;5.85;;;;;;;-142.57;50.84;115900.28;5002088;28;20045;-84
2023/08/27 08:03:28;;;;;;;16.70;6.35;;;;;;;-142.57;50.58;115900.28;5001002;28;20395;-84
2023/08/27 08:05:54;;;;;;;19.85;6.57;;;;;;;-142.57;50.26;115900.28;5004182;28;20093;-84
2023/08/27 08:08:19;;;;;;;18.20;6.63;;;;;;;-142.57;50.04;115900.28;4990977;28;20204;-82
2023/08/27 08:10:45;;;;;;;15.82;6.85;;;;;;;-142.57;50.52;115900.28;5012071;28;20054;-83
2023/08/27 08:13:11;;;;;;;15.45;6.65;;;;;;;-142.57;50.41;115900.28;4996883;28;20097;-85
2023/08/27 08:15:37;;;;;;;16.48;6.68;;;;;;;-142.57;50.96;115900.28;5013710;28;20034;-83
2023/08/27 08:18:03;;;;;;;20.52;6.07;;;;;;;-142.57;51.12;115900.28;5014008;28;20061;-82
2023/08/27 08:20:32;;;;;;;16.65;6.03;;;;;;;-142.57;50.18;115900.28;5016802;28;20034;-83
2023/08/27 08:22:57;;;;;;;16.77;6.80;;;;;;;-142.57;50.42;115900.28;5014691;28;20042;-84
2023/08/27 08:25:24;;;;;;;18.17;6.35;;;;;;;-142.57;50.79;115900.28;5008998;28;20027;-85
2023/08/27 08:27:50;;;;;;;21.23;7.20;;;;;;;-142.57;50.98;115900.28;5004727;28;20038;-81
2023/08/27 08:30:17;;;;;;;10.73;6.03;;;;;;;-142.57;50.95;115900.28;4990790;28;20039;-83
2023/08/27 08:32:43;;;;;;;10.85;6.10;;;;;;;-142.57;50.83;115900.28;5010794;28;20031;-85
2023/08/27 08:35:08;;;;;;;9.77;5.88;;;;;;;-142.57;50.53;115900.28;5008754;28;20061;-85
2023/08/27 08:37:34;;;;;;;13.30;6.05;;;;;;;-142.57;49.97;115900.28;5007239;28;20038;-83
2023/08/27 08:40:00;;;;;;;21.35;6.30;;;;;;;-142.57;49.61;115900.28;5003484;28;20038;-87
2023/08/27 08:42:31;;;;;;;16.45;6.50;;;;;;;-142.57;49.21;115900.28;5004411;28;20049;-88
2023/08/27 08:45:20;;;;;;;12.90;6.15;;;;;;;-142.57;48.87;115900.28;5009645;28;20034;-85
2023/08/27 08:47:55;;;;;;;11.25;5.80;;;;;;;-142.57;48.48;115900.28;5003193;28;20511;-84
2023/08/27 08:50:24;;;;;;;14.18;6.25;;;;;;;-142.57;48.81;115900.28;5004812;28;20054;-90
2023/08/27 08:52:53;;;;;;;16.80;6.10;;;;;;;-142.57;48.84;115900.28;5004018;28;20034;-84
2023/08/27 08:55:27;;;;;;;18.50;5.82;;;;;;;-142.57;48.84;115900.28;4985888;28;20054;-84
2023/08/27 08:58:08;;;;;;;16.50;6.20;;;;;;;-142.57;48.75;115900.28;5001037;28;20527;-90
2023/08/27 09:00:35;;;;;;;14.60;6.35;;;;;;;-142.57;48.63;115900.28;5002930;28;20034;-88
2023/08/27 09:03:03;;;;;;;14.20;6.30;;;;;;;-142.57;48.55;115900.28;5002347;28;20097;-87
2023/08/27 09:05:32;;;;;;;12.65;5.90;;;;;;;-142.57;48.01;115900.28;5000777;28;20029;-90
2023/08/27 09:07:59;;;;;;;12.40;5.32;;;;;;;-142.57;47.71;115900.28;5000309;28;20114;-88
2023/08/27 09:10:25;;;;;;;15.35;6.10;;;;;;;-142.57;47.78;115900.28;5000885;28;20034;-87
2023/08/27 09:12:56;;;;;;;11.60;6.20;;;;;;;-142.57;47.80;115900.28;5001887;28;20026;-90
2023/08/27 09:15:22;;;;;;;13.95;6.30;;;;;;;-142.57;48.66;115900.28;5003759;28;20069;-90
2023/08/27 09:17:51;;;;;;;15.43;5.63;;;;;;;-142.57;48.83;115900.28;5002648;28;20038;-92
2023/08/27 09:20:19;;;;;;;14.43;5.77;;;;;;;-142.57;48.69;115900.28;5001980;28;20038;-89
2023/08/27 09:22:45;;;;;;;17.10;7.47;;;;;;;-142.57;50.09;115900.28;5001124;28;20320;-89
2023/08/27 09:25:10;;;;;;;15.07;7.32;;;;;;;-142.57;50.54;115900.28;5000273;28;20044;-85
2023/08/27 09:27:36;;;;;;;15.95;7.20;;;;;;;-142.57;51.52;115900.28;5002753;28;20080;-89
2023/08/27 09:30:05;;;;;;;16.27;7.18;;;;;;;-142.57;51.74;115900.28;5004353;28;20034;-89
2023/08/27 09:32:35;;;;;;;17.00;7.68;;;;;;;-142.57;53.07;115900.28;5005533;28;20070;-86
2023/08/27 09:35:03;;;;;;;15.02;7.50;;;;;;;-142.57;52.99;115900.28;5003964;28;20085;-86
2023/08/27 09:37:39;;;;;;;12.55;6.97;;;;;;;-142.57;52.69;115900.28;5004631;28;20061;-89
2023/08/27 09:40:11;;;;;;;20.40;7.47;;;;;;;-142.57;54.10;115900.28;5002544;28;20031;-87
2023/08/27 09:42:40;;;;;;;27.58;9.30;;;;;;;-142.57;55.74;115900.28;5002681;28;20042;-88
2023/08/27 09:45:09;;;;;;;26.77;10.38;;;;;;;-142.57;57.34;115900.28;5004581;28;20121;-83
2023/08/27 09:47:37;;;;;;;27.30;11.00;;;;;;;-142.57;58.45;115900.28;5002842;28;20147;-89
2023/08/27 09:50:07;;;;;;;27.45;10.38;;;;;;;-142.57;58.62;115900.28;5001160;28;20034;-85
2023/08/27 09:52:33;;;;;;;23.33;9.90;;;;;;;-142.57;59.19;115900.28;5002825;28;20117;-85
2023/08/27 09:54:59;;;;;;;18.38;8.88;;;;;;;-142.57;59.02;115900.28;5000235;28;20049;-88
2023/08/27 09:57:25;;;;;;;31.60;9.73;;;;;;;-142.57;60.23;115900.28;4996917;28;20038;-89
2023/08/27 09:59:52;;;;;;;33.53;11.82;;;;;;;-142.57;59.67;115900.28;4994801;28;20118;-82
2023/08/27 10:02:18;;;;;;;55.78;19.23;;;;;;;-142.57;59.94;115900.28;4999513;28;20126;-86
2023/08/27 10:04:56;;;;;;;48.10;15.57;;;;;;;-142.57;60.80;115900.28;4998023;28;20364;-84
2023/08/27 10:07:22;;;;;;;22.20;12.45;;;;;;;-142.57;61.45;115900.28;4997010;28;20038;-88
2023/08/27 10:09:54;;;;;;;37.47;14.10;;;;;;;-142.57;62.97;115900.28;4998291;28;20130;-84
2023/08/27 10:12:31;;;;;;;37.97;15.07;;;;;;;-142.57;63.48;115900.28;4999427;28;20289;-86
2023/08/27 10:15:04;;;;;;;23.75;13.60;;;;;;;-142.57;63.70;115900.28;4981427;28;20057;-86
2023/08/27 10:17:42;;;;;;;34.08;14.98;;;;;;;-142.57;64.87;115900.28;5007671;28;20030;-89
2023/08/27 10:20:16;;;;;;;30.58;15.23;;;;;;;-142.57;66.09;115900.28;5000347;28;20111;-83
2023/08/27 10:22:42;;;;;;;29.15;16.23;;;;;;;-142.57;67.48;115900.28;5002338;28;20070;-83
2023/08/27 10:25:33;;;;;;;27.52;14.48;;;;;;;-142.57;67.35;115900.28;4984731;28;20034;-84
2023/08/27 10:27:59;;;;;;;29.02;15.98;;;;;;;-142.57;67.75;115900.28;5007366;28;20062;-82
2023/08/27 10:30:28;;;;;;;28.33;15.73;;;;;;;-142.57;67.58;115900.28;4975764;28;20105;-82
2023/08/27 10:33:06;;;;;;;;;;;;;;;;;;;;;
2023/08/27 10:35:39;;;;;;;29.58;16.15;;;;;;;-142.57;68.78;115900.28;5001840;28;20058;-86
2023/08/27 10:38:46;;;;;;;32.13;17.42;;;;;;;-142.57;68.87;115900.28;4994003;28;20041;-90
2023/08/27 10:41:54;;;;;;;29.30;19.35;;;;;;;-142.57;70.98;115900.28;4999444;28;20041;-88
2023/08/27 10:44:24;;;;;;;33.00;20.07;;;;;;;-142.57;72.84;115900.28;5002856;28;20045;-87
2023/08/27 10:47:17;;;;;;;32.33;21.35;;;;;;;-142.57;75.16;115900.28;4990753;28;20034;-93
2023/08/27 10:49:48;;;;;;;51.58;29.80;;;;;;;-142.57;82.15;115900.28;5005452;28;20032;-87
2023/08/27 10:52:20;;;;;;;36.47;26.08;;;;;;;-142.57;82.20;115900.28;5006096;28;20049;-86
2023/08/27 10:54:51;;;;;;;39.57;24.53;;;;;;;-142.57;82.84;115900.28;5005042;28;20042;-85
2023/08/27 10:57:21;;;;;;;42.67;26.75;;;;;;;-142.57;85.51;115900.28;5012962;28;20285;-85
2023/08/27 10:59:48;;;;;;;39.63;25.92;;;;;;;-142.57;84.73;115900.28;5026826;28;20038;-85
2023/08/27 11:02:51;;;;;;;35.03;21.58;;;;;;;-142.57;83.69;115900.28;5011433;28;20042;-86
2023/08/27 11:05:25;;;;;;;32.60;22.73;;;;;;;-142.57;83.31;115900.28;5026654;28;20022;-90
2023/08/27 11:24:56;;;;;;;37.13;22.67;;;;;;;-142.57;89.18;115900.28;2842260;23;20038;-87
2023/08/27 11:28:01;;;;;;;;;;;;;;;;;;;;;